sensor_id;sensor_type;location;lat;lon;timestamp;temperature;humidity
44435;DHT22;30138;20.964;105.830;2024-01-06T00:03:05;23.20;99.90
44435;DHT22;30138;20.964;105.830;2024-01-06T00:08:12;23.20;99.90
44435;DHT22;30138;20.964;105.830;2024-01-06T00:13:19;23.20;99.90
44435;DHT22;30138;20.964;105.830;2024-01-06T00:18:34;23.20;99.90
44435;DHT22;30138;20.964;105.830;2024-01-06T00:23:41;23.20;99.90
44435;DHT22;30138;20.964;105.830;2024-01-06T00:28:48;23.20;99.90
44435;DHT22;30138;20.964;105.830;2024-01-06T00:33:56;23.20;99.90
44435;DHT22;30138;20.964;105.830;2024-01-06T00:39:02;23.10;99.90
44435;DHT22;30138;20.964;105.830;2024-01-06T00:44:09;23.10;99.90
44435;DHT22;30138;20.964;105.830;2024-01-06T00:49:18;23.10;99.90
44435;DHT22;30138;20.964;105.830;2024-01-06T00:54:25;23.10;99.90
44435;DHT22;30138;20.964;105.830;2024-01-06T00:59:33;23.10;99.90
44435;DHT22;30138;20.964;105.830;2024-01-06T01:04:41;23.10;99.90
44435;DHT22;30138;20.964;105.830;2024-01-06T01:09:48;23.10;99.90
44435;DHT22;30138;20.964;105.830;2024-01-06T01:14:55;23.10;99.90
44435;DHT22;30138;20.964;105.830;2024-01-06T01:20:05;23.10;99.90
44435;DHT22;30138;20.964;105.830;2024-01-06T01:25:13;23.10;99.90
44435;DHT22;30138;20.964;105.830;2024-01-06T01:30:19;23.00;99.90
44435;DHT22;30138;20.964;105.830;2024-01-06T01:35:30;23.10;99.90
44435;DHT22;30138;20.964;105.830;2024-01-06T01:40:37;23.10;99.90
44435;DHT22;30138;20.964;105.830;2024-01-06T01:45:48;23.10;99.90
44435;DHT22;30138;20.964;105.830;2024-01-06T01:50:58;23.10;99.90
44435;DHT22;30138;20.964;105.830;2024-01-06T01:56:06;23.10;99.90
44435;DHT22;30138;20.964;105.830;2024-01-06T02:01:13;23.10;99.90
44435;DHT22;30138;20.964;105.830;2024-01-06T02:06:21;23.10;99.90
44435;DHT22;30138;20.964;105.830;2024-01-06T02:11:27;23.10;99.90
44435;DHT22;30138;20.964;105.830;2024-01-06T02:16:34;23.10;99.90
44435;DHT22;30138;20.964;105.830;2024-01-06T02:21:44;23.20;99.90
44435;DHT22;30138;20.964;105.830;2024-01-06T02:26:55;23.20;99.90
44435;DHT22;30138;20.964;105.830;2024-01-06T02:32:02;23.30;99.90
44435;DHT22;30138;20.964;105.830;2024-01-06T02:37:11;23.30;99.90
44435;DHT22;30138;20.964;105.830;2024-01-06T02:42:18;23.30;99.90
44435;DHT22;30138;20.964;105.830;2024-01-06T02:47:25;23.30;99.90
44435;DHT22;30138;20.964;105.830;2024-01-06T02:52:34;23.30;99.90
44435;DHT22;30138;20.964;105.830;2024-01-06T02:57:41;23.30;99.90
44435;DHT22;30138;20.964;105.830;2024-01-06T03:02:47;23.30;99.90
44435;DHT22;30138;20.964;105.830;2024-01-06T03:07:56;23.30;99.90
44435;DHT22;30138;20.964;105.830;2024-01-06T03:13:04;23.40;99.90
44435;DHT22;30138;20.964;105.830;2024-01-06T03:18:11;23.40;99.90
44435;DHT22;30138;20.964;105.830;2024-01-06T03:23:19;23.40;99.90
44435;DHT22;30138;20.964;105.830;2024-01-06T03:28:26;23.40;99.90
44435;DHT22;30138;20.964;105.830;2024-01-06T03:33:33;23.40;99.90
44435;DHT22;30138;20.964;105.830;2024-01-06T03:38:41;23.40;99.90
44435;DHT22;30138;20.964;105.830;2024-01-06T03:43:47;23.40;99.90
44435;DHT22;30138;20.964;105.830;2024-01-06T03:48:55;23.50;99.90
44435;DHT22;30138;20.964;105.830;2024-01-06T03:54:04;23.50;99.90
44435;DHT22;30138;20.964;105.830;2024-01-06T03:59:11;23.50;99.90
44435;DHT22;30138;20.964;105.830;2024-01-06T04:04:18;23.60;99.90
44435;DHT22;30138;20.964;105.830;2024-01-06T04:09:27;23.70;99.90
44435;DHT22;30138;20.964;105.830;2024-01-06T04:14:33;23.70;99.90
44435;DHT22;30138;20.964;105.830;2024-01-06T04:19:41;23.70;99.90
44435;DHT22;30138;20.964;105.830;2024-01-06T04:24:50;23.70;99.90
44435;DHT22;30138;20.964;105.830;2024-01-06T04:29:57;23.80;99.90
44435;DHT22;30138;20.964;105.830;2024-01-06T04:35:04;23.80;99.90
44435;DHT22;30138;20.964;105.830;2024-01-06T04:40:14;23.80;99.90
44435;DHT22;30138;20.964;105.830;2024-01-06T04:45:20;23.90;99.90
44435;DHT22;30138;20.964;105.830;2024-01-06T04:50:27;23.90;99.90
44435;DHT22;30138;20.964;105.830;2024-01-06T04:55:36;23.90;99.90
44435;DHT22;30138;20.964;105.830;2024-01-06T05:00:43;23.90;99.90
44435;DHT22;30138;20.964;105.830;2024-01-06T05:05:50;23.90;99.90
44435;DHT22;30138;20.964;105.830;2024-01-06T05:10:59;23.90;99.90
44435;DHT22;30138;20.964;105.830;2024-01-06T05:16:06;23.90;99.90
44435;DHT22;30138;20.964;105.830;2024-01-06T05:21:13;23.90;99.90
44435;DHT22;30138;20.964;105.830;2024-01-06T05:26:21;23.90;99.90
44435;DHT22;30138;20.964;105.830;2024-01-06T05:31:28;23.90;99.90
44435;DHT22;30138;20.964;105.830;2024-01-06T05:36:36;23.90;99.90
44435;DHT22;30138;20.964;105.830;2024-01-06T05:41:44;23.90;99.90
44435;DHT22;30138;20.964;105.830;2024-01-06T05:46:51;24.00;99.90
44435;DHT22;30138;20.964;105.830;2024-01-06T05:51:57;24.00;99.90
44435;DHT22;30138;20.964;105.830;2024-01-06T05:57:06;24.00;99.90
44435;DHT22;30138;20.964;105.830;2024-01-06T06:02:12;24.00;99.90
44435;DHT22;30138;20.964;105.830;2024-01-06T06:07:19;24.10;99.90
44435;DHT22;30138;20.964;105.830;2024-01-06T06:12:28;24.10;99.90
44435;DHT22;30138;20.964;105.830;2024-01-06T06:17:35;24.10;99.90
44435;DHT22;30138;20.964;105.830;2024-01-06T06:22:42;24.20;99.90
44435;DHT22;30138;20.964;105.830;2024-01-06T06:27:50;24.20;99.90
44435;DHT22;30138;20.964;105.830;2024-01-06T06:32:56;24.30;99.90
44435;DHT22;30138;20.964;105.830;2024-01-06T06:38:04;24.30;99.90
44435;DHT22;30138;20.964;105.830;2024-01-06T06:43:12;24.40;99.90
44435;DHT22;30138;20.964;105.830;2024-01-06T06:48:18;24.40;99.90
44435;DHT22;30138;20.964;105.830;2024-01-06T06:53:25;24.40;99.90
44435;DHT22;30138;20.964;105.830;2024-01-06T06:58:34;24.40;99.90
44435;DHT22;30138;20.964;105.830;2024-01-06T07:03:41;24.50;99.90
44435;DHT22;30138;20.964;105.830;2024-01-06T07:08:48;24.50;99.90
44435;DHT22;30138;20.964;105.830;2024-01-06T07:13:57;24.50;99.90
44435;DHT22;30138;20.964;105.830;2024-01-06T07:19:04;24.50;99.90
44435;DHT22;30138;20.964;105.830;2024-01-06T07:24:10;24.50;99.90
44435;DHT22;30138;20.964;105.830;2024-01-06T07:29:21;24.50;99.90
44435;DHT22;30138;20.964;105.830;2024-01-06T07:34:28;24.50;99.90
44435;DHT22;30138;20.964;105.830;2024-01-06T07:39:34;24.50;99.90
44435;DHT22;30138;20.964;105.830;2024-01-06T07:44:43;24.50;99.90
44435;DHT22;30138;20.964;105.830;2024-01-06T07:49:50;24.50;99.90
44435;DHT22;30138;20.964;105.830;2024-01-06T07:54:59;24.50;99.90
44435;DHT22;30138;20.964;105.830;2024-01-06T08:00:08;24.50;99.90
44435;DHT22;30138;20.964;105.830;2024-01-06T08:05:17;24.40;99.90
44435;DHT22;30138;20.964;105.830;2024-01-06T08:10:24;24.50;99.90
44435;DHT22;30138;20.964;105.830;2024-01-06T08:15:33;24.40;99.90
44435;DHT22;30138;20.964;105.830;2024-01-06T08:20:41;24.50;99.90
44435;DHT22;30138;20.964;105.830;2024-01-06T08:25:48;24.50;99.90
44435;DHT22;30138;20.964;105.830;2024-01-06T08:30:56;24.40;99.90
44435;DHT22;30138;20.964;105.830;2024-01-06T08:36:03;24.50;99.90
44435;DHT22;30138;20.964;105.830;2024-01-06T08:41:09;24.50;99.90
44435;DHT22;30138;20.964;105.830;2024-01-06T08:46:20;24.50;99.90
44435;DHT22;30138;20.964;105.830;2024-01-06T08:51:26;24.50;99.90
44435;DHT22;30138;20.964;105.830;2024-01-06T08:56:34;24.50;99.90
44435;DHT22;30138;20.964;105.830;2024-01-06T09:01:44;24.50;99.90
44435;DHT22;30138;20.964;105.830;2024-01-06T09:06:51;24.50;99.90
44435;DHT22;30138;20.964;105.830;2024-01-06T09:11:58;24.50;99.90
44435;DHT22;30138;20.964;105.830;2024-01-06T09:17:07;24.50;99.90
44435;DHT22;30138;20.964;105.830;2024-01-06T09:22:13;24.50;99.90
44435;DHT22;30138;20.964;105.830;2024-01-06T09:27:20;24.40;99.90
44435;DHT22;30138;20.964;105.830;2024-01-06T09:32:30;24.50;99.90
44435;DHT22;30138;20.964;105.830;2024-01-06T09:37:37;24.40;99.90
44435;DHT22;30138;20.964;105.830;2024-01-06T09:42:44;24.50;99.90
44435;DHT22;30138;20.964;105.830;2024-01-06T09:47:53;24.50;99.90
44435;DHT22;30138;20.964;105.830;2024-01-06T09:53:00;24.40;99.90
44435;DHT22;30138;20.964;105.830;2024-01-06T09:58:09;24.40;99.90
44435;DHT22;30138;20.964;105.830;2024-01-06T10:03:18;24.40;99.90
44435;DHT22;30138;20.964;105.830;2024-01-06T10:08:26;24.40;99.90
44435;DHT22;30138;20.964;105.830;2024-01-06T10:13:33;24.40;99.90
44435;DHT22;30138;20.964;105.830;2024-01-06T10:18:42;24.50;99.90
44435;DHT22;30138;20.964;105.830;2024-01-06T10:23:50;24.40;99.90
44435;DHT22;30138;20.964;105.830;2024-01-06T10:28:56;24.40;99.90
44435;DHT22;30138;20.964;105.830;2024-01-06T10:34:05;24.40;99.90
44435;DHT22;30138;20.964;105.830;2024-01-06T10:39:12;24.40;99.90
44435;DHT22;30138;20.964;105.830;2024-01-06T10:44:20;24.40;99.90
44435;DHT22;30138;20.964;105.830;2024-01-06T10:49:29;24.40;99.90
44435;DHT22;30138;20.964;105.830;2024-01-06T10:54:37;24.40;99.90
44435;DHT22;30138;20.964;105.830;2024-01-06T10:59:45;24.40;99.90
44435;DHT22;30138;20.964;105.830;2024-01-06T11:04:58;24.40;99.90
44435;DHT22;30138;20.964;105.830;2024-01-06T11:10:08;24.40;99.90
44435;DHT22;30138;20.964;105.830;2024-01-06T11:15:44;24.40;99.90
44435;DHT22;30138;20.964;105.830;2024-01-06T11:21:19;24.40;99.90
44435;DHT22;30138;20.964;105.830;2024-01-06T11:26:30;24.50;99.90
44435;DHT22;30138;20.964;105.830;2024-01-06T11:31:37;24.40;99.90
44435;DHT22;30138;20.964;105.830;2024-01-06T11:36:47;24.40;99.90
44435;DHT22;30138;20.964;105.830;2024-01-06T11:41:54;24.40;99.90
44435;DHT22;30138;20.964;105.830;2024-01-06T11:47:03;24.40;99.90
44435;DHT22;30138;20.964;105.830;2024-01-06T11:52:13;24.50;99.90
44435;DHT22;30138;20.964;105.830;2024-01-06T11:57:20;24.40;99.90
44435;DHT22;30138;20.964;105.830;2024-01-06T12:02:28;24.40;99.90
44435;DHT22;30138;20.964;105.830;2024-01-06T12:07:37;24.40;99.90
44435;DHT22;30138;20.964;105.830;2024-01-06T12:12:43;24.40;99.90
44435;DHT22;30138;20.964;105.830;2024-01-06T12:18:04;24.40;99.90
44435;DHT22;30138;20.964;105.830;2024-01-06T12:23:19;24.40;99.90
44435;DHT22;30138;20.964;105.830;2024-01-06T12:28:30;24.40;99.90
44435;DHT22;30138;20.964;105.830;2024-01-06T12:33:37;24.40;99.90
44435;DHT22;30138;20.964;105.830;2024-01-06T12:38:46;24.40;99.90
44435;DHT22;30138;20.964;105.830;2024-01-06T12:43:52;24.40;99.90
44435;DHT22;30138;20.964;105.830;2024-01-06T12:49:00;24.40;99.90
44435;DHT22;30138;20.964;105.830;2024-01-06T12:54:08;24.40;99.90
44435;DHT22;30138;20.964;105.830;2024-01-06T12:59:14;24.40;99.90
44435;DHT22;30138;20.964;105.830;2024-01-06T13:04:22;24.40;99.90
44435;DHT22;30138;20.964;105.830;2024-01-06T13:09:30;24.40;99.90
44435;DHT22;30138;20.964;105.830;2024-01-06T13:14:37;24.40;99.90
44435;DHT22;30138;20.964;105.830;2024-01-06T13:19:43;24.40;99.90
44435;DHT22;30138;20.964;105.830;2024-01-06T13:24:52;24.40;99.90
44435;DHT22;30138;20.964;105.830;2024-01-06T13:29:59;24.40;99.90
44435;DHT22;30138;20.964;105.830;2024-01-06T13:35:07;24.40;99.90
44435;DHT22;30138;20.964;105.830;2024-01-06T13:40:16;24.40;99.90
44435;DHT22;30138;20.964;105.830;2024-01-06T13:45:23;24.40;99.90
44435;DHT22;30138;20.964;105.830;2024-01-06T13:50:30;24.40;99.90
44435;DHT22;30138;20.964;105.830;2024-01-06T13:55:39;24.40;99.90
44435;DHT22;30138;20.964;105.830;2024-01-06T14:00:46;24.40;99.90
44435;DHT22;30138;20.964;105.830;2024-01-06T14:05:53;24.40;99.90
44435;DHT22;30138;20.964;105.830;2024-01-06T14:11:01;24.40;99.90
44435;DHT22;30138;20.964;105.830;2024-01-06T14:16:08;24.40;99.90
44435;DHT22;30138;20.964;105.830;2024-01-06T14:21:15;24.30;99.90
44435;DHT22;30138;20.964;105.830;2024-01-06T14:26:25;24.30;99.90
44435;DHT22;30138;20.964;105.830;2024-01-06T14:31:31;24.30;99.90
44435;DHT22;30138;20.964;105.830;2024-01-06T14:36:37;24.30;99.90
44435;DHT22;30138;20.964;105.830;2024-01-06T14:41:52;24.30;99.90
44435;DHT22;30138;20.964;105.830;2024-01-06T14:46:58;24.30;99.90
44435;DHT22;30138;20.964;105.830;2024-01-06T14:52:05;24.30;99.90
44435;DHT22;30138;20.964;105.830;2024-01-06T14:57:15;24.30;99.90
44435;DHT22;30138;20.964;105.830;2024-01-06T15:02:22;24.30;99.90
44435;DHT22;30138;20.964;105.830;2024-01-06T15:07:30;24.30;99.90
44435;DHT22;30138;20.964;105.830;2024-01-06T15:12:40;24.30;99.90
44435;DHT22;30138;20.964;105.830;2024-01-06T15:17:48;24.30;99.90
44435;DHT22;30138;20.964;105.830;2024-01-06T15:22:55;24.30;99.90
44435;DHT22;30138;20.964;105.830;2024-01-06T15:28:05;24.30;99.90
44435;DHT22;30138;20.964;105.830;2024-01-06T15:33:11;24.30;99.90
44435;DHT22;30138;20.964;105.830;2024-01-06T15:38:18;24.30;99.90
44435;DHT22;30138;20.964;105.830;2024-01-06T15:43:27;24.30;99.90
44435;DHT22;30138;20.964;105.830;2024-01-06T15:48:34;24.30;99.90
44435;DHT22;30138;20.964;105.830;2024-01-06T15:53:41;24.30;99.90
44435;DHT22;30138;20.964;105.830;2024-01-06T15:58:51;24.30;99.90
44435;DHT22;30138;20.964;105.830;2024-01-06T16:03:59;24.30;99.90
44435;DHT22;30138;20.964;105.830;2024-01-06T16:09:07;24.30;99.90
44435;DHT22;30138;20.964;105.830;2024-01-06T16:14:16;24.30;99.90
44435;DHT22;30138;20.964;105.830;2024-01-06T16:19:23;24.30;99.90
44435;DHT22;30138;20.964;105.830;2024-01-06T16:24:31;24.30;99.90
44435;DHT22;30138;20.964;105.830;2024-01-06T16:29:40;24.30;99.90
44435;DHT22;30138;20.964;105.830;2024-01-06T16:34:47;24.30;99.90
44435;DHT22;30138;20.964;105.830;2024-01-06T16:39:54;24.30;99.90
44435;DHT22;30138;20.964;105.830;2024-01-06T16:45:03;24.20;99.90
44435;DHT22;30138;20.964;105.830;2024-01-06T16:50:11;24.20;99.90
44435;DHT22;30138;20.964;105.830;2024-01-06T16:55:19;24.20;99.90
44435;DHT22;30138;20.964;105.830;2024-01-06T17:00:27;24.20;99.90
44435;DHT22;30138;20.964;105.830;2024-01-06T17:05:34;24.20;99.90
44435;DHT22;30138;20.964;105.830;2024-01-06T17:10:41;24.20;99.90
44435;DHT22;30138;20.964;105.830;2024-01-06T17:15:49;24.20;99.90
44435;DHT22;30138;20.964;105.830;2024-01-06T17:20:56;24.20;99.90
44435;DHT22;30138;20.964;105.830;2024-01-06T17:26:02;24.20;99.90
44435;DHT22;30138;20.964;105.830;2024-01-06T17:31:11;24.20;99.90
44435;DHT22;30138;20.964;105.830;2024-01-06T17:36:17;24.20;99.90
44435;DHT22;30138;20.964;105.830;2024-01-06T17:41:24;24.20;99.90
44435;DHT22;30138;20.964;105.830;2024-01-06T17:46:32;24.20;99.90
44435;DHT22;30138;20.964;105.830;2024-01-06T17:51:38;24.20;99.90
44435;DHT22;30138;20.964;105.830;2024-01-06T17:56:45;24.10;99.90
44435;DHT22;30138;20.964;105.830;2024-01-06T18:01:55;24.10;99.90
44435;DHT22;30138;20.964;105.830;2024-01-06T18:07:02;24.10;99.90
44435;DHT22;30138;20.964;105.830;2024-01-06T18:12:10;24.10;99.90
44435;DHT22;30138;20.964;105.830;2024-01-06T18:17:20;24.10;99.90
44435;DHT22;30138;20.964;105.830;2024-01-06T18:22:26;24.10;99.90
44435;DHT22;30138;20.964;105.830;2024-01-06T18:27:34;24.10;99.90
44435;DHT22;30138;20.964;105.830;2024-01-06T18:32:44;24.10;99.90
44435;DHT22;30138;20.964;105.830;2024-01-06T18:37:51;24.10;99.90
44435;DHT22;30138;20.964;105.830;2024-01-06T18:42:58;24.10;99.90
44435;DHT22;30138;20.964;105.830;2024-01-06T18:48:07;24.10;99.90
44435;DHT22;30138;20.964;105.830;2024-01-06T18:53:14;24.10;99.90
44435;DHT22;30138;20.964;105.830;2024-01-06T18:58:22;24.00;99.90
44435;DHT22;30138;20.964;105.830;2024-01-06T19:03:31;24.00;99.90
44435;DHT22;30138;20.964;105.830;2024-01-06T19:08:38;24.10;99.90
44435;DHT22;30138;20.964;105.830;2024-01-06T19:13:45;24.00;99.90
44435;DHT22;30138;20.964;105.830;2024-01-06T19:18:54;24.00;99.90
44435;DHT22;30138;20.964;105.830;2024-01-06T19:24:01;24.00;99.90
44435;DHT22;30138;20.964;105.830;2024-01-06T19:29:08;24.00;99.90
44435;DHT22;30138;20.964;105.830;2024-01-06T19:34:18;24.00;99.90
44435;DHT22;30138;20.964;105.830;2024-01-06T19:39:25;24.00;99.90
44435;DHT22;30138;20.964;105.830;2024-01-06T19:44:32;24.00;99.90
44435;DHT22;30138;20.964;105.830;2024-01-06T19:49:41;24.00;99.90
44435;DHT22;30138;20.964;105.830;2024-01-06T19:54:48;24.00;99.90
44435;DHT22;30138;20.964;105.830;2024-01-06T19:59:55;24.00;99.90
44435;DHT22;30138;20.964;105.830;2024-01-06T20:05:05;23.90;99.90
44435;DHT22;30138;20.964;105.830;2024-01-06T20:10:13;24.00;99.90
44435;DHT22;30138;20.964;105.830;2024-01-06T20:15:21;23.90;99.90
44435;DHT22;30138;20.964;105.830;2024-01-06T20:20:30;23.90;99.90
44435;DHT22;30138;20.964;105.830;2024-01-06T20:25:37;23.90;99.90
44435;DHT22;30138;20.964;105.830;2024-01-06T20:30:46;23.90;99.90
44435;DHT22;30138;20.964;105.830;2024-01-06T20:35:56;23.90;99.90
44435;DHT22;30138;20.964;105.830;2024-01-06T20:41:03;23.90;99.90
44435;DHT22;30138;20.964;105.830;2024-01-06T20:46:15;23.90;99.90
44435;DHT22;30138;20.964;105.830;2024-01-06T20:51:24;23.90;99.90
44435;DHT22;30138;20.964;105.830;2024-01-06T20:56:30;23.90;99.90
44435;DHT22;30138;20.964;105.830;2024-01-06T21:01:38;23.90;99.90
44435;DHT22;30138;20.964;105.830;2024-01-06T21:06:46;23.90;99.90
44435;DHT22;30138;20.964;105.830;2024-01-06T21:11:53;23.90;99.90
44435;DHT22;30138;20.964;105.830;2024-01-06T21:16:59;23.90;99.90
44435;DHT22;30138;20.964;105.830;2024-01-06T21:22:08;23.90;99.90
44435;DHT22;30138;20.964;105.830;2024-01-06T21:27:14;23.90;99.90
44435;DHT22;30138;20.964;105.830;2024-01-06T21:32:21;23.90;99.90
44435;DHT22;30138;20.964;105.830;2024-01-06T21:37:31;23.90;99.90
44435;DHT22;30138;20.964;105.830;2024-01-06T21:42:37;23.90;99.90
44435;DHT22;30138;20.964;105.830;2024-01-06T21:47:48;23.80;99.90
44435;DHT22;30138;20.964;105.830;2024-01-06T21:53:01;23.90;99.90
44435;DHT22;30138;20.964;105.830;2024-01-06T21:58:09;23.90;99.90
44435;DHT22;30138;20.964;105.830;2024-01-06T22:03:16;23.80;99.90
44435;DHT22;30138;20.964;105.830;2024-01-06T22:08:26;23.80;99.90
44435;DHT22;30138;20.964;105.830;2024-01-06T22:13:36;23.80;99.90
44435;DHT22;30138;20.964;105.830;2024-01-06T22:18:46;23.80;99.90
44435;DHT22;30138;20.964;105.830;2024-01-06T22:23:56;23.80;99.90
44435;DHT22;30138;20.964;105.830;2024-01-06T22:29:02;23.80;99.90
44435;DHT22;30138;20.964;105.830;2024-01-06T22:34:09;23.80;99.90
44435;DHT22;30138;20.964;105.830;2024-01-06T22:39:19;23.80;99.90
44435;DHT22;30138;20.964;105.830;2024-01-06T22:44:28;23.80;99.90
44435;DHT22;30138;20.964;105.830;2024-01-06T22:49:34;23.80;99.90
44435;DHT22;30138;20.964;105.830;2024-01-06T22:54:44;23.80;99.90
44435;DHT22;30138;20.964;105.830;2024-01-06T22:59:52;23.80;99.90
44435;DHT22;30138;20.964;105.830;2024-01-06T23:04:59;23.80;99.90
44435;DHT22;30138;20.964;105.830;2024-01-06T23:10:10;23.80;99.90
44435;DHT22;30138;20.964;105.830;2024-01-06T23:15:16;23.80;99.90
44435;DHT22;30138;20.964;105.830;2024-01-06T23:20:24;23.80;99.90
44435;DHT22;30138;20.964;105.830;2024-01-06T23:25:33;23.80;99.90
44435;DHT22;30138;20.964;105.830;2024-01-06T23:30:41;23.80;99.90
44435;DHT22;30138;20.964;105.830;2024-01-06T23:35:48;23.80;99.90
44435;DHT22;30138;20.964;105.830;2024-01-06T23:40:56;23.80;99.90
44435;DHT22;30138;20.964;105.830;2024-01-06T23:46:02;23.80;99.90
44435;DHT22;30138;20.964;105.830;2024-01-06T23:51:15;23.70;99.90
44435;DHT22;30138;20.964;105.830;2024-01-06T23:56:24;23.70;99.90
